Skip Navigation Links Skip Navigation Links

Current Weather

Tom B. David Fld, Calhoun, Ga.

For information only: do not use for flight planning or navigation.
Latest weather
Observation time Tuesday, January 26, 2021 6:35 PM EST
Local time Tuesday, January 26, 2021 7:01 PM EST
Flight conditions Visual Meteorological Conditions
Winds
Wind direction West-Southwest (240°)
Wind speed 5 mph
Visibility 10 mi.
Sky condition
Ceiling 11,000 ft. broken clouds
Cloud layer broken clouds 11,000 ft.
Temperature 61°F
Dewpoint 43°F
Altimeter 29.96 in.Hg
Derived measurements
Relative humidity 51%
Density altitude 858 ft.
Remarks
Fully automated report.
Automated weather observing station with precipitation discriminator.
METAR KCZL 262335Z AUTO 24004KT 10SM BKN110 16/06 A2996 RMK AO2

Settings

Location code

InnerDrive.Weather 4.0.6770.0 Release CLR 4.0.30319.42000
Copyright ©2018 Inner Drive Technology. All rights reserved. Portions Copyright ©1986-2018 David Braverman.

Find weather

Site navigation


Skip Navigation Links

Place info

Page info

PayPal - The safer, easier way to pay online!

Return home.

Copyright ©2021 Inner Drive Technology. Purveyors of fine, hand-crafted computer software. Page printed 2021-01-27T00:01:16 UTC.